sensor_id;sensor_type;location;lat;lon;timestamp;temperature;humidity
12504;DHT22;6316;48.118;-1.690;2023-02-24T00:00:04;8.40;99.90
12504;DHT22;6316;48.118;-1.690;2023-02-24T00:02:50;8.50;99.90
12504;DHT22;6316;48.118;-1.690;2023-02-24T00:05:17;8.50;99.90
12504;DHT22;6316;48.118;-1.690;2023-02-24T00:07:42;8.50;99.90
12504;DHT22;6316;48.118;-1.690;2023-02-24T00:10:09;8.50;99.90
12504;DHT22;6316;48.118;-1.690;2023-02-24T00:12:35;8.50;99.90
12504;DHT22;6316;48.118;-1.690;2023-02-24T00:15:01;8.60;99.90
12504;DHT22;6316;48.118;-1.690;2023-02-24T00:17:27;8.60;99.90
12504;DHT22;6316;48.118;-1.690;2023-02-24T00:19:55;8.60;99.90
12504;DHT22;6316;48.118;-1.690;2023-02-24T00:22:21;8.60;99.90
12504;DHT22;6316;48.118;-1.690;2023-02-24T00:24:46;8.60;99.90
12504;DHT22;6316;48.118;-1.690;2023-02-24T00:27:12;8.60;99.90
12504;DHT22;6316;48.118;-1.690;2023-02-24T00:29:38;8.60;99.90
12504;DHT22;6316;48.118;-1.690;2023-02-24T00:32:04;8.60;99.90
12504;DHT22;6316;48.118;-1.690;2023-02-24T00:34:34;8.60;99.90
12504;DHT22;6316;48.118;-1.690;2023-02-24T00:37:01;8.60;99.90
12504;DHT22;6316;48.118;-1.690;2023-02-24T00:39:28;8.60;99.90
12504;DHT22;6316;48.118;-1.690;2023-02-24T00:41:55;8.60;99.90
12504;DHT22;6316;48.118;-1.690;2023-02-24T00:44:34;8.70;99.90
12504;DHT22;6316;48.118;-1.690;2023-02-24T00:47:02;8.70;99.90
12504;DHT22;6316;48.118;-1.690;2023-02-24T00:49:29;8.70;99.90
12504;DHT22;6316;48.118;-1.690;2023-02-24T00:51:56;8.70;99.90
12504;DHT22;6316;48.118;-1.690;2023-02-24T00:54:23;8.70;99.90
12504;DHT22;6316;48.118;-1.690;2023-02-24T00:56:53;8.70;99.90
12504;DHT22;6316;48.118;-1.690;2023-02-24T00:59:19;8.70;99.90
12504;DHT22;6316;48.118;-1.690;2023-02-24T01:01:46;8.70;99.90
12504;DHT22;6316;48.118;-1.690;2023-02-24T01:04:14;8.70;99.90
12504;DHT22;6316;48.118;-1.690;2023-02-24T01:06:43;8.70;99.90
12504;DHT22;6316;48.118;-1.690;2023-02-24T01:09:14;8.70;99.90
12504;DHT22;6316;48.118;-1.690;2023-02-24T01:11:41;8.80;99.90
12504;DHT22;6316;48.118;-1.690;2023-02-24T01:14:34;8.70;99.90
12504;DHT22;6316;48.118;-1.690;2023-02-24T01:17:00;8.70;99.90
12504;DHT22;6316;48.118;-1.690;2023-02-24T01:19:30;8.80;99.90
12504;DHT22;6316;48.118;-1.690;2023-02-24T01:22:05;8.80;99.90
12504;DHT22;6316;48.118;-1.690;2023-02-24T01:24:37;8.80;99.90
12504;DHT22;6316;48.118;-1.690;2023-02-24T01:27:04;8.80;99.90
12504;DHT22;6316;48.118;-1.690;2023-02-24T01:29:30;8.80;99.90
12504;DHT22;6316;48.118;-1.690;2023-02-24T01:31:56;8.80;99.90
12504;DHT22;6316;48.118;-1.690;2023-02-24T01:34:27;8.80;99.90
12504;DHT22;6316;48.118;-1.690;2023-02-24T01:36:54;8.80;99.90
12504;DHT22;6316;48.118;-1.690;2023-02-24T01:39:19;8.80;99.90
12504;DHT22;6316;48.118;-1.690;2023-02-24T01:41:48;8.80;99.90
12504;DHT22;6316;48.118;-1.690;2023-02-24T01:46:53;8.90;99.90
12504;DHT22;6316;48.118;-1.690;2023-02-24T01:49:34;8.90;99.90
12504;DHT22;6316;48.118;-1.690;2023-02-24T01:54:37;8.90;99.90
12504;DHT22;6316;48.118;-1.690;2023-02-24T01:57:08;8.90;99.90
12504;DHT22;6316;48.118;-1.690;2023-02-24T01:59:34;8.90;99.90
12504;DHT22;6316;48.118;-1.690;2023-02-24T02:02:03;8.90;99.90
12504;DHT22;6316;48.118;-1.690;2023-02-24T02:07:06;8.90;99.90
12504;DHT22;6316;48.118;-1.690;2023-02-24T02:09:37;8.90;99.90
12504;DHT22;6316;48.118;-1.690;2023-02-24T02:12:02;9.00;99.90
12504;DHT22;6316;48.118;-1.690;2023-02-24T02:14:30;9.00;99.90
12504;DHT22;6316;48.118;-1.690;2023-02-24T02:17:05;9.00;99.90
12504;DHT22;6316;48.118;-1.690;2023-02-24T02:30:58;8.90;99.90
12504;DHT22;6316;48.118;-1.690;2023-02-24T02:39:10;9.00;99.90
12504;DHT22;6316;48.118;-1.690;2023-02-24T02:41:51;8.90;99.90
12504;DHT22;6316;48.118;-1.690;2023-02-24T02:47:16;8.90;99.90
12504;DHT22;6316;48.118;-1.690;2023-02-24T02:49:48;8.90;99.90
12504;DHT22;6316;48.118;-1.690;2023-02-24T02:52:27;8.90;99.90
12504;DHT22;6316;48.118;-1.690;2023-02-24T02:55:32;8.90;99.90
12504;DHT22;6316;48.118;-1.690;2023-02-24T02:57:52;8.80;99.90
12504;DHT22;6316;48.118;-1.690;2023-02-24T03:00:32;8.80;99.90
12504;DHT22;6316;48.118;-1.690;2023-02-24T03:03:13;8.80;99.90
12504;DHT22;6316;48.118;-1.690;2023-02-24T03:05:45;8.80;99.90
12504;DHT22;6316;48.118;-1.690;2023-02-24T03:08:19;8.80;99.90
12504;DHT22;6316;48.118;-1.690;2023-02-24T03:10:47;8.70;99.90
12504;DHT22;6316;48.118;-1.690;2023-02-24T03:13:21;8.80;99.90
12504;DHT22;6316;48.118;-1.690;2023-02-24T03:15:51;8.70;99.90
12504;DHT22;6316;48.118;-1.690;2023-02-24T03:18:27;8.70;99.90
12504;DHT22;6316;48.118;-1.690;2023-02-24T03:21:01;8.70;99.90
12504;DHT22;6316;48.118;-1.690;2023-02-24T03:23:35;8.70;99.90
12504;DHT22;6316;48.118;-1.690;2023-02-24T03:26:18;8.70;99.90
12504;DHT22;6316;48.118;-1.690;2023-02-24T03:29:04;8.70;99.90
12504;DHT22;6316;48.118;-1.690;2023-02-24T03:31:49;8.70;99.90
12504;DHT22;6316;48.118;-1.690;2023-02-24T03:36:53;8.70;99.90
12504;DHT22;6316;48.118;-1.690;2023-02-24T03:39:20;8.70;99.90
12504;DHT22;6316;48.118;-1.690;2023-02-24T03:44:22;8.70;99.90
12504;DHT22;6316;48.118;-1.690;2023-02-24T03:46:50;8.70;99.90
12504;DHT22;6316;48.118;-1.690;2023-02-24T03:49:16;8.70;99.90
12504;DHT22;6316;48.118;-1.690;2023-02-24T03:51:47;8.60;99.90
12504;DHT22;6316;48.118;-1.690;2023-02-24T04:00:07;8.70;99.90
12504;DHT22;6316;48.118;-1.690;2023-02-24T04:11:59;8.70;99.90
12504;DHT22;6316;48.118;-1.690;2023-02-24T04:14:33;8.70;99.90
12504;DHT22;6316;48.118;-1.690;2023-02-24T04:17:09;8.70;99.90
12504;DHT22;6316;48.118;-1.690;2023-02-24T04:19:40;8.60;99.90
12504;DHT22;6316;48.118;-1.690;2023-02-24T04:22:09;8.60;99.90
12504;DHT22;6316;48.118;-1.690;2023-02-24T04:24:36;8.60;99.90
12504;DHT22;6316;48.118;-1.690;2023-02-24T04:27:05;8.70;99.90
12504;DHT22;6316;48.118;-1.690;2023-02-24T04:29:37;8.60;99.90
12504;DHT22;6316;48.118;-1.690;2023-02-24T04:32:07;8.70;99.90
12504;DHT22;6316;48.118;-1.690;2023-02-24T04:34:34;8.70;99.90
12504;DHT22;6316;48.118;-1.690;2023-02-24T04:37:00;8.70;99.90
12504;DHT22;6316;48.118;-1.690;2023-02-24T04:39:28;8.70;99.90
12504;DHT22;6316;48.118;-1.690;2023-02-24T04:41:55;8.70;99.90
12504;DHT22;6316;48.118;-1.690;2023-02-24T04:44:23;8.70;99.90
12504;DHT22;6316;48.118;-1.690;2023-02-24T04:46:49;8.70;99.90
12504;DHT22;6316;48.118;-1.690;2023-02-24T04:49:17;8.70;99.90
12504;DHT22;6316;48.118;-1.690;2023-02-24T04:51:43;8.70;99.90
12504;DHT22;6316;48.118;-1.690;2023-02-24T04:54:15;8.70;99.90
12504;DHT22;6316;48.118;-1.690;2023-02-24T04:56:46;8.70;99.90
12504;DHT22;6316;48.118;-1.690;2023-02-24T04:59:13;8.70;99.90
12504;DHT22;6316;48.118;-1.690;2023-02-24T05:01:40;8.60;99.90
12504;DHT22;6316;48.118;-1.690;2023-02-24T05:04:08;8.70;99.90
12504;DHT22;6316;48.118;-1.690;2023-02-24T05:06:34;8.70;99.90
12504;DHT22;6316;48.118;-1.690;2023-02-24T05:09:00;8.70;99.90
12504;DHT22;6316;48.118;-1.690;2023-02-24T05:11:35;8.70;99.90
12504;DHT22;6316;48.118;-1.690;2023-02-24T05:14:00;8.70;99.90
12504;DHT22;6316;48.118;-1.690;2023-02-24T05:16:28;8.60;99.90
12504;DHT22;6316;48.118;-1.690;2023-02-24T05:18:54;8.60;99.90
12504;DHT22;6316;48.118;-1.690;2023-02-24T05:21:38;8.60;99.90
12504;DHT22;6316;48.118;-1.690;2023-02-24T05:24:06;8.60;99.90
12504;DHT22;6316;48.118;-1.690;2023-02-24T05:26:34;8.60;99.90
12504;DHT22;6316;48.118;-1.690;2023-02-24T05:29:01;8.70;99.90
12504;DHT22;6316;48.118;-1.690;2023-02-24T05:31:29;8.60;99.90
12504;DHT22;6316;48.118;-1.690;2023-02-24T05:34:01;8.70;99.90
12504;DHT22;6316;48.118;-1.690;2023-02-24T05:36:36;8.60;99.90
12504;DHT22;6316;48.118;-1.690;2023-02-24T05:39:04;8.60;99.90
12504;DHT22;6316;48.118;-1.690;2023-02-24T05:41:33;8.60;99.90
12504;DHT22;6316;48.118;-1.690;2023-02-24T05:44:05;8.60;99.90
12504;DHT22;6316;48.118;-1.690;2023-02-24T05:46:34;8.60;99.90
12504;DHT22;6316;48.118;-1.690;2023-02-24T05:49:06;8.60;99.90
12504;DHT22;6316;48.118;-1.690;2023-02-24T05:51:37;8.60;99.90
12504;DHT22;6316;48.118;-1.690;2023-02-24T05:54:08;8.60;99.90
12504;DHT22;6316;48.118;-1.690;2023-02-24T05:56:37;8.60;99.90
12504;DHT22;6316;48.118;-1.690;2023-02-24T05:59:05;8.60;99.90
12504;DHT22;6316;48.118;-1.690;2023-02-24T06:01:34;8.60;99.90
12504;DHT22;6316;48.118;-1.690;2023-02-24T06:04:03;8.60;99.90
12504;DHT22;6316;48.118;-1.690;2023-02-24T06:06:40;8.60;99.90
12504;DHT22;6316;48.118;-1.690;2023-02-24T06:09:11;8.60;99.90
12504;DHT22;6316;48.118;-1.690;2023-02-24T06:11:39;8.60;99.90
12504;DHT22;6316;48.118;-1.690;2023-02-24T06:14:06;8.60;99.90
12504;DHT22;6316;48.118;-1.690;2023-02-24T06:16:33;8.50;99.90
12504;DHT22;6316;48.118;-1.690;2023-02-24T06:19:00;8.60;99.90
12504;DHT22;6316;48.118;-1.690;2023-02-24T06:21:25;8.60;99.90
12504;DHT22;6316;48.118;-1.690;2023-02-24T06:23:55;8.60;99.90
12504;DHT22;6316;48.118;-1.690;2023-02-24T06:26:20;8.60;99.90
12504;DHT22;6316;48.118;-1.690;2023-02-24T06:28:46;8.50;99.90
12504;DHT22;6316;48.118;-1.690;2023-02-24T06:31:12;8.50;99.90
12504;DHT22;6316;48.118;-1.690;2023-02-24T06:33:40;8.50;99.90
12504;DHT22;6316;48.118;-1.690;2023-02-24T06:36:06;8.50;99.90
12504;DHT22;6316;48.118;-1.690;2023-02-24T06:38:34;8.50;99.90
12504;DHT22;6316;48.118;-1.690;2023-02-24T06:41:01;8.40;99.90
12504;DHT22;6316;48.118;-1.690;2023-02-24T06:43:29;8.40;99.90
12504;DHT22;6316;48.118;-1.690;2023-02-24T06:45:55;8.40;99.90
12504;DHT22;6316;48.118;-1.690;2023-02-24T06:48:21;8.40;99.90
12504;DHT22;6316;48.118;-1.690;2023-02-24T06:50:49;8.40;99.90
12504;DHT22;6316;48.118;-1.690;2023-02-24T06:53:16;8.40;99.90
12504;DHT22;6316;48.118;-1.690;2023-02-24T06:55:44;8.30;99.90
12504;DHT22;6316;48.118;-1.690;2023-02-24T06:58:20;8.30;99.90
12504;DHT22;6316;48.118;-1.690;2023-02-24T07:00:48;8.30;99.90
12504;DHT22;6316;48.118;-1.690;2023-02-24T07:03:25;8.20;99.90
12504;DHT22;6316;48.118;-1.690;2023-02-24T07:06:07;8.20;99.90
12504;DHT22;6316;48.118;-1.690;2023-02-24T07:08:46;8.20;99.90
12504;DHT22;6316;48.118;-1.690;2023-02-24T07:11:12;8.10;99.90
12504;DHT22;6316;48.118;-1.690;2023-02-24T07:13:38;8.10;99.90
12504;DHT22;6316;48.118;-1.690;2023-02-24T07:16:06;8.10;99.90
12504;DHT22;6316;48.118;-1.690;2023-02-24T07:18:32;8.00;99.90
12504;DHT22;6316;48.118;-1.690;2023-02-24T07:21:01;8.00;99.90
12504;DHT22;6316;48.118;-1.690;2023-02-24T07:23:36;8.00;99.90
12504;DHT22;6316;48.118;-1.690;2023-02-24T07:26:09;8.00;99.90
12504;DHT22;6316;48.118;-1.690;2023-02-24T07:28:37;8.00;99.90
12504;DHT22;6316;48.118;-1.690;2023-02-24T07:31:09;8.00;99.90
12504;DHT22;6316;48.118;-1.690;2023-02-24T07:33:37;8.00;99.90
12504;DHT22;6316;48.118;-1.690;2023-02-24T07:36:07;8.00;99.90
12504;DHT22;6316;48.118;-1.690;2023-02-24T07:38:37;7.90;99.90
12504;DHT22;6316;48.118;-1.690;2023-02-24T07:41:04;7.90;99.90
12504;DHT22;6316;48.118;-1.690;2023-02-24T07:43:34;7.90;99.90
12504;DHT22;6316;48.118;-1.690;2023-02-24T07:46:13;7.80;99.90
12504;DHT22;6316;48.118;-1.690;2023-02-24T07:48:40;7.80;99.90
12504;DHT22;6316;48.118;-1.690;2023-02-24T07:51:10;7.70;99.90
12504;DHT22;6316;48.118;-1.690;2023-02-24T07:53:37;7.70;99.90
12504;DHT22;6316;48.118;-1.690;2023-02-24T07:56:10;7.70;99.90
12504;DHT22;6316;48.118;-1.690;2023-02-24T07:58:42;7.70;99.90
12504;DHT22;6316;48.118;-1.690;2023-02-24T08:01:09;7.70;99.90
12504;DHT22;6316;48.118;-1.690;2023-02-24T08:03:43;7.60;99.90
12504;DHT22;6316;48.118;-1.690;2023-02-24T08:06:09;7.60;99.90
12504;DHT22;6316;48.118;-1.690;2023-02-24T08:08:43;7.70;99.90
12504;DHT22;6316;48.118;-1.690;2023-02-24T08:11:30;7.70;99.90
12504;DHT22;6316;48.118;-1.690;2023-02-24T08:14:07;7.70;99.90
12504;DHT22;6316;48.118;-1.690;2023-02-24T08:16:41;7.70;99.90
12504;DHT22;6316;48.118;-1.690;2023-02-24T08:19:09;7.70;99.90
12504;DHT22;6316;48.118;-1.690;2023-02-24T08:21:41;7.80;99.90
12504;DHT22;6316;48.118;-1.690;2023-02-24T08:24:18;7.80;99.90
12504;DHT22;6316;48.118;-1.690;2023-02-24T08:26:45;7.80;99.90
12504;DHT22;6316;48.118;-1.690;2023-02-24T08:29:18;7.80;99.90
12504;DHT22;6316;48.118;-1.690;2023-02-24T08:31:45;7.90;99.90
12504;DHT22;6316;48.118;-1.690;2023-02-24T08:34:11;7.90;99.90
12504;DHT22;6316;48.118;-1.690;2023-02-24T08:36:41;7.90;99.90
12504;DHT22;6316;48.118;-1.690;2023-02-24T08:39:13;7.90;99.90
12504;DHT22;6316;48.118;-1.690;2023-02-24T08:41:39;7.90;99.90
12504;DHT22;6316;48.118;-1.690;2023-02-24T08:44:16;7.90;99.90
12504;DHT22;6316;48.118;-1.690;2023-02-24T08:46:45;8.00;99.90
12504;DHT22;6316;48.118;-1.690;2023-02-24T08:49:15;8.00;99.90
12504;DHT22;6316;48.118;-1.690;2023-02-24T08:51:43;8.00;99.90
12504;DHT22;6316;48.118;-1.690;2023-02-24T08:54:16;8.10;99.90
12504;DHT22;6316;48.118;-1.690;2023-02-24T08:56:44;8.10;99.90
12504;DHT22;6316;48.118;-1.690;2023-02-24T08:59:15;8.10;99.90
12504;DHT22;6316;48.118;-1.690;2023-02-24T09:02:20;8.20;99.90
12504;DHT22;6316;48.118;-1.690;2023-02-24T09:07:24;8.20;99.90
12504;DHT22;6316;48.118;-1.690;2023-02-24T09:09:50;8.20;99.90
12504;DHT22;6316;48.118;-1.690;2023-02-24T09:12:24;8.20;99.90
12504;DHT22;6316;48.118;-1.690;2023-02-24T09:15:02;8.20;99.90
12504;DHT22;6316;48.118;-1.690;2023-02-24T09:17:32;8.30;99.90
12504;DHT22;6316;48.118;-1.690;2023-02-24T09:23:01;8.40;99.90
12504;DHT22;6316;48.118;-1.690;2023-02-24T09:25:38;8.40;99.90
12504;DHT22;6316;48.118;-1.690;2023-02-24T09:28:22;8.50;99.90
12504;DHT22;6316;48.118;-1.690;2023-02-24T09:30:56;8.50;99.90
12504;DHT22;6316;48.118;-1.690;2023-02-24T09:33:36;8.60;99.90
12504;DHT22;6316;48.118;-1.690;2023-02-24T09:36:11;8.70;99.90
12504;DHT22;6316;48.118;-1.690;2023-02-24T09:38:42;8.70;99.90
12504;DHT22;6316;48.118;-1.690;2023-02-24T09:41:46;8.80;99.90
12504;DHT22;6316;48.118;-1.690;2023-02-24T09:47:16;9.00;99.90
12504;DHT22;6316;48.118;-1.690;2023-02-24T09:52:44;9.20;99.90
12504;DHT22;6316;48.118;-1.690;2023-02-24T09:55:39;9.20;99.90
12504;DHT22;6316;48.118;-1.690;2023-02-24T09:58:48;9.20;99.90
12504;DHT22;6316;48.118;-1.690;2023-02-24T10:01:36;9.20;99.90
12504;DHT22;6316;48.118;-1.690;2023-02-24T10:07:23;9.40;99.90
12504;DHT22;6316;48.118;-1.690;2023-02-24T10:09:54;9.40;99.90
12504;DHT22;6316;48.118;-1.690;2023-02-24T10:12:36;9.50;99.90
12504;DHT22;6316;48.118;-1.690;2023-02-24T10:15:14;9.50;99.90
12504;DHT22;6316;48.118;-1.690;2023-02-24T10:17:52;9.60;99.90
12504;DHT22;6316;48.118;-1.690;2023-02-24T10:20:36;9.70;99.90
12504;DHT22;6316;48.118;-1.690;2023-02-24T10:25:46;10.00;99.90
12504;DHT22;6316;48.118;-1.690;2023-02-24T10:28:44;10.10;99.90
12504;DHT22;6316;48.118;-1.690;2023-02-24T10:31:32;10.10;99.90
12504;DHT22;6316;48.118;-1.690;2023-02-24T10:34:07;10.20;99.90
12504;DHT22;6316;48.118;-1.690;2023-02-24T10:36:34;10.20;99.90
12504;DHT22;6316;48.118;-1.690;2023-02-24T10:39:15;10.20;99.90
12504;DHT22;6316;48.118;-1.690;2023-02-24T10:41:49;10.20;99.90
12504;DHT22;6316;48.118;-1.690;2023-02-24T10:44:23;10.20;99.90
12504;DHT22;6316;48.118;-1.690;2023-02-24T10:47:10;10.20;99.90
12504;DHT22;6316;48.118;-1.690;2023-02-24T10:49:47;10.20;99.90
12504;DHT22;6316;48.118;-1.690;2023-02-24T10:52:32;10.10;99.90
12504;DHT22;6316;48.118;-1.690;2023-02-24T10:55:29;10.00;99.90
12504;DHT22;6316;48.118;-1.690;2023-02-24T11:00:55;9.70;99.90
12504;DHT22;6316;48.118;-1.690;2023-02-24T11:03:53;9.60;99.90
12504;DHT22;6316;48.118;-1.690;2023-02-24T11:06:28;9.60;99.90
12504;DHT22;6316;48.118;-1.690;2023-02-24T11:09:18;9.50;99.90
12504;DHT22;6316;48.118;-1.690;2023-02-24T11:12:05;9.60;99.90
12504;DHT22;6316;48.118;-1.690;2023-02-24T11:17:48;9.70;99.90
12504;DHT22;6316;48.118;-1.690;2023-02-24T11:21:01;9.70;99.90
12504;DHT22;6316;48.118;-1.690;2023-02-24T11:23:12;9.70;99.90
12504;DHT22;6316;48.118;-1.690;2023-02-24T11:25:40;9.80;99.90
12504;DHT22;6316;48.118;-1.690;2023-02-24T11:28:49;9.90;99.90
12504;DHT22;6316;48.118;-1.690;2023-02-24T11:42:14;10.30;99.90
12504;DHT22;6316;48.118;-1.690;2023-02-24T11:48:17;10.40;99.90
12504;DHT22;6316;48.118;-1.690;2023-02-24T11:53:38;10.40;99.90
12504;DHT22;6316;48.118;-1.690;2023-02-24T12:01:47;10.20;99.90
12504;DHT22;6316;48.118;-1.690;2023-02-24T12:04:31;10.20;99.90
12504;DHT22;6316;48.118;-1.690;2023-02-24T12:07:04;10.20;99.90
12504;DHT22;6316;48.118;-1.690;2023-02-24T12:09:44;10.20;99.90
12504;DHT22;6316;48.118;-1.690;2023-02-24T12:14:50;10.10;99.90
12504;DHT22;6316;48.118;-1.690;2023-02-24T12:17:46;10.10;99.90
12504;DHT22;6316;48.118;-1.690;2023-02-24T12:23:30;10.00;99.90
12504;DHT22;6316;48.118;-1.690;2023-02-24T12:26:02;10.00;99.90
12504;DHT22;6316;48.118;-1.690;2023-02-24T12:42:52;10.30;99.90
12504;DHT22;6316;48.118;-1.690;2023-02-24T12:45:32;10.30;99.90
12504;DHT22;6316;48.118;-1.690;2023-02-24T12:51:06;10.40;99.90
12504;DHT22;6316;48.118;-1.690;2023-02-24T12:53:35;10.40;99.90
12504;DHT22;6316;48.118;-1.690;2023-02-24T12:58:41;10.40;99.90
12504;DHT22;6316;48.118;-1.690;2023-02-24T13:06:46;10.60;99.90
12504;DHT22;6316;48.118;-1.690;2023-02-24T13:12:24;10.70;99.90
12504;DHT22;6316;48.118;-1.690;2023-02-24T13:14:52;10.70;99.90
12504;DHT22;6316;48.118;-1.690;2023-02-24T13:17:24;10.70;99.90
12504;DHT22;6316;48.118;-1.690;2023-02-24T13:19:52;10.70;99.90
12504;DHT22;6316;48.118;-1.690;2023-02-24T13:27:32;10.80;99.90
12504;DHT22;6316;48.118;-1.690;2023-02-24T13:30:23;10.80;99.90
12504;DHT22;6316;48.118;-1.690;2023-02-24T13:32:59;10.80;99.90
12504;DHT22;6316;48.118;-1.690;2023-02-24T13:37:52;10.70;99.90
12504;DHT22;6316;48.118;-1.690;2023-02-24T13:42:58;10.70;99.90
12504;DHT22;6316;48.118;-1.690;2023-02-24T13:59:23;10.80;99.90
12504;DHT22;6316;48.118;-1.690;2023-02-24T14:04:29;10.80;99.90
12504;DHT22;6316;48.118;-1.690;2023-02-24T14:07:01;10.80;99.90
12504;DHT22;6316;48.118;-1.690;2023-02-24T14:09:31;10.80;99.90
12504;DHT22;6316;48.118;-1.690;2023-02-24T14:12:02;10.90;99.90
12504;DHT22;6316;48.118;-1.690;2023-02-24T14:14:28;10.90;99.90
12504;DHT22;6316;48.118;-1.690;2023-02-24T14:16:54;11.00;99.90
12504;DHT22;6316;48.118;-1.690;2023-02-24T14:19:20;11.00;99.90
12504;DHT22;6316;48.118;-1.690;2023-02-24T14:21:54;11.00;99.90
12504;DHT22;6316;48.118;-1.690;2023-02-24T14:24:20;11.00;99.90
12504;DHT22;6316;48.118;-1.690;2023-02-24T14:26:57;11.00;99.90
12504;DHT22;6316;48.118;-1.690;2023-02-24T14:29:27;11.10;99.90
12504;DHT22;6316;48.118;-1.690;2023-02-24T14:31:56;11.10;99.90
12504;DHT22;6316;48.118;-1.690;2023-02-24T14:34:26;11.20;99.90
12504;DHT22;6316;48.118;-1.690;2023-02-24T14:37:00;11.20;99.90
12504;DHT22;6316;48.118;-1.690;2023-02-24T14:39:30;11.20;99.90
12504;DHT22;6316;48.118;-1.690;2023-02-24T14:44:33;11.20;99.90
12504;DHT22;6316;48.118;-1.690;2023-02-24T14:47:03;11.30;99.90
12504;DHT22;6316;48.118;-1.690;2023-02-24T14:49:33;11.30;99.90
12504;DHT22;6316;48.118;-1.690;2023-02-24T14:55:19;11.30;99.90
12504;DHT22;6316;48.118;-1.690;2023-02-24T14:58:11;11.30;99.90
12504;DHT22;6316;48.118;-1.690;2023-02-24T15:00:44;11.30;99.90
12504;DHT22;6316;48.118;-1.690;2023-02-24T15:03:16;11.30;99.90
12504;DHT22;6316;48.118;-1.690;2023-02-24T15:05:45;11.30;99.90
12504;DHT22;6316;48.118;-1.690;2023-02-24T15:08:42;11.30;99.90
12504;DHT22;6316;48.118;-1.690;2023-02-24T15:16:19;11.30;99.90
12504;DHT22;6316;48.118;-1.690;2023-02-24T15:18:52;11.30;99.90
12504;DHT22;6316;48.118;-1.690;2023-02-24T15:21:30;11.20;99.90
12504;DHT22;6316;48.118;-1.690;2023-02-24T15:24:01;11.10;99.90
12504;DHT22;6316;48.118;-1.690;2023-02-24T15:26:32;11.10;99.90
12504;DHT22;6316;48.118;-1.690;2023-02-24T15:29:02;11.10;99.90
12504;DHT22;6316;48.118;-1.690;2023-02-24T15:31:28;11.10;99.90
12504;DHT22;6316;48.118;-1.690;2023-02-24T15:33:59;11.00;99.90
12504;DHT22;6316;48.118;-1.690;2023-02-24T15:36:30;11.00;99.90
12504;DHT22;6316;48.118;-1.690;2023-02-24T15:39:07;11.00;99.90
12504;DHT22;6316;48.118;-1.690;2023-02-24T15:41:43;11.00;99.90
12504;DHT22;6316;48.118;-1.690;2023-02-24T15:44:31;11.00;99.90
12504;DHT22;6316;48.118;-1.690;2023-02-24T15:46:58;11.00;99.90
12504;DHT22;6316;48.118;-1.690;2023-02-24T15:49:24;11.00;99.90
12504;DHT22;6316;48.118;-1.690;2023-02-24T15:51:53;11.00;99.90
12504;DHT22;6316;48.118;-1.690;2023-02-24T15:54:24;11.00;99.90
12504;DHT22;6316;48.118;-1.690;2023-02-24T15:56:51;11.00;99.90
12504;DHT22;6316;48.118;-1.690;2023-02-24T15:59:17;11.00;99.90
12504;DHT22;6316;48.118;-1.690;2023-02-24T16:01:46;11.00;99.90
12504;DHT22;6316;48.118;-1.690;2023-02-24T16:04:12;11.00;99.90
12504;DHT22;6316;48.118;-1.690;2023-02-24T16:06:39;11.00;99.90
12504;DHT22;6316;48.118;-1.690;2023-02-24T16:09:11;10.90;99.90
12504;DHT22;6316;48.118;-1.690;2023-02-24T16:11:40;10.90;99.90
12504;DHT22;6316;48.118;-1.690;2023-02-24T16:14:08;10.90;99.90
12504;DHT22;6316;48.118;-1.690;2023-02-24T16:16:38;10.90;99.90
12504;DHT22;6316;48.118;-1.690;2023-02-24T16:19:04;10.90;99.90
12504;DHT22;6316;48.118;-1.690;2023-02-24T16:21:29;10.90;99.90
12504;DHT22;6316;48.118;-1.690;2023-02-24T16:23:55;10.80;99.90
12504;DHT22;6316;48.118;-1.690;2023-02-24T16:26:21;10.80;99.90
12504;DHT22;6316;48.118;-1.690;2023-02-24T16:28:55;10.80;99.90
12504;DHT22;6316;48.118;-1.690;2023-02-24T16:31:23;10.80;99.90
12504;DHT22;6316;48.118;-1.690;2023-02-24T16:33:49;10.70;99.90
12504;DHT22;6316;48.118;-1.690;2023-02-24T16:36:15;10.70;99.90
12504;DHT22;6316;48.118;-1.690;2023-02-24T16:38:42;10.70;99.90
12504;DHT22;6316;48.118;-1.690;2023-02-24T16:41:11;10.70;99.90
12504;DHT22;6316;48.118;-1.690;2023-02-24T16:43:38;10.60;99.90
12504;DHT22;6316;48.118;-1.690;2023-02-24T16:46:05;10.60;99.90
12504;DHT22;6316;48.118;-1.690;2023-02-24T16:48:33;10.60;99.90
12504;DHT22;6316;48.118;-1.690;2023-02-24T16:51:05;10.60;99.90
12504;DHT22;6316;48.118;-1.690;2023-02-24T16:53:31;10.50;99.90
12504;DHT22;6316;48.118;-1.690;2023-02-24T16:55:57;10.50;99.90
12504;DHT22;6316;48.118;-1.690;2023-02-24T16:58:23;10.50;99.90
12504;DHT22;6316;48.118;-1.690;2023-02-24T17:00:50;10.50;99.90
12504;DHT22;6316;48.118;-1.690;2023-02-24T17:03:20;10.40;99.90
12504;DHT22;6316;48.118;-1.690;2023-02-24T17:05:46;10.40;99.90
12504;DHT22;6316;48.118;-1.690;2023-02-24T17:08:13;10.40;99.90
12504;DHT22;6316;48.118;-1.690;2023-02-24T17:10:39;10.40;99.90
12504;DHT22;6316;48.118;-1.690;2023-02-24T17:13:11;10.30;99.90
12504;DHT22;6316;48.118;-1.690;2023-02-24T17:15:37;10.30;99.90
12504;DHT22;6316;48.118;-1.690;2023-02-24T17:18:03;10.20;99.90
12504;DHT22;6316;48.118;-1.690;2023-02-24T17:20:29;10.20;99.90
12504;DHT22;6316;48.118;-1.690;2023-02-24T17:22:55;10.10;99.90
12504;DHT22;6316;48.118;-1.690;2023-02-24T17:25:27;10.10;99.90
12504;DHT22;6316;48.118;-1.690;2023-02-24T17:27:54;10.00;99.90
12504;DHT22;6316;48.118;-1.690;2023-02-24T17:30:22;10.00;99.90
12504;DHT22;6316;48.118;-1.690;2023-02-24T17:32:49;9.90;99.90
12504;DHT22;6316;48.118;-1.690;2023-02-24T17:35:15;9.90;99.90
12504;DHT22;6316;48.118;-1.690;2023-02-24T17:37:40;9.80;99.90
12504;DHT22;6316;48.118;-1.690;2023-02-24T17:40:07;9.80;99.90
12504;DHT22;6316;48.118;-1.690;2023-02-24T17:42:33;9.80;99.90
12504;DHT22;6316;48.118;-1.690;2023-02-24T17:44:58;9.70;99.90
12504;DHT22;6316;48.118;-1.690;2023-02-24T17:47:24;9.70;99.90
12504;DHT22;6316;48.118;-1.690;2023-02-24T17:49:50;9.60;99.90
12504;DHT22;6316;48.118;-1.690;2023-02-24T17:52:16;9.60;99.90
12504;DHT22;6316;48.118;-1.690;2023-02-24T17:54:42;9.60;99.90
12504;DHT22;6316;48.118;-1.690;2023-02-24T17:57:08;9.50;99.90
12504;DHT22;6316;48.118;-1.690;2023-02-24T17:59:35;9.50;99.90
12504;DHT22;6316;48.118;-1.690;2023-02-24T18:02:00;9.50;99.90
12504;DHT22;6316;48.118;-1.690;2023-02-24T18:04:27;9.40;99.90
12504;DHT22;6316;48.118;-1.690;2023-02-24T18:06:53;9.40;99.90
12504;DHT22;6316;48.118;-1.690;2023-02-24T18:09:19;9.30;99.90
12504;DHT22;6316;48.118;-1.690;2023-02-24T18:11:44;9.30;99.90
12504;DHT22;6316;48.118;-1.690;2023-02-24T18:14:12;9.20;99.90
12504;DHT22;6316;48.118;-1.690;2023-02-24T18:16:38;9.20;99.90
12504;DHT22;6316;48.118;-1.690;2023-02-24T18:19:03;9.20;99.90
12504;DHT22;6316;48.118;-1.690;2023-02-24T18:21:29;9.10;99.90
12504;DHT22;6316;48.118;-1.690;2023-02-24T18:23:55;9.10;99.90
12504;DHT22;6316;48.118;-1.690;2023-02-24T18:26:21;9.10;99.90
12504;DHT22;6316;48.118;-1.690;2023-02-24T18:28:47;9.10;99.90
12504;DHT22;6316;48.118;-1.690;2023-02-24T18:31:18;9.00;99.90
12504;DHT22;6316;48.118;-1.690;2023-02-24T18:33:44;9.00;99.90
12504;DHT22;6316;48.118;-1.690;2023-02-24T18:36:12;9.00;99.90
12504;DHT22;6316;48.118;-1.690;2023-02-24T18:38:38;9.00;99.90
12504;DHT22;6316;48.118;-1.690;2023-02-24T18:41:06;9.00;99.90
12504;DHT22;6316;48.118;-1.690;2023-02-24T18:43:33;8.90;99.90
12504;DHT22;6316;48.118;-1.690;2023-02-24T18:46:05;8.90;99.90
12504;DHT22;6316;48.118;-1.690;2023-02-24T18:48:32;8.90;99.90
12504;DHT22;6316;48.118;-1.690;2023-02-24T18:50:59;8.90;99.90
12504;DHT22;6316;48.118;-1.690;2023-02-24T18:53:26;8.80;99.90